Salisbury, MA (01952)

5:51 AM EDT on August 24, 2016 (GMT -0400)
rural community | | Change Station

Elev 92 ft 42.86 °N, 70.90 °W | Updated 17 seconds ago

Clear
Clear
56.7 °F
Feels Like 56.7 °F
N
0.0
Wind Variable Wind from West
Gusts 0.0 mph

Today
High -- | Low -- °F
--% Chance of Precip.
Yesterday
High -- | Low -- °F
Precip. -- in
Pressure 30.24 in
Visibility 10.0 miles
Clouds Clear
Dew Point 55 °F
Humidity 95%
Rainfall 0.00 in
Snow Depth Not available.
5:59 AM 7:30 PM
Waning Gibbous, 59% visible
METAR KLWM 240854Z AUTO 19004KT 10SM CLR 16/13 A3024 RMK AO2 SLP239 T01610133 56003
Pressure 30.24 in
Visibility 10.0 miles
Clouds Clear
Dew Point 55 °F
Humidity 95%
Rainfall 0.00 in
Snow Depth Not available.
5:59 AM 7:30 PM
Waning Gibbous, 59% visible
METAR KLWM 240854Z AUTO 19004KT 10SM CLR 16/13 A3024 RMK AO2 SLP239 T01610133 56003

10-Day Weather Forecast

Almanac

Astronomy

Aug. 24, 2016 Rise Set
Actual Time
Civil Twilight
Nautical Twilight
Astronomical Twilight
Moon
Length of Visible Light
Length of Day
Tomorrow will be .
, % of the Moon is Illuminated

Today's Extremes

State Highs State Lows

Community

WunderPhotos

Upload Photos

1,934,560 photos uploaded!

WunderBlog® & News

Nearby

Air Quality

  Air Quality AQ Index Pollutant
Not available.

Snow Depth

Station Depth Elevation

Earthquake Activity

City Distance Mag. Time & Date
Minimum magnitude displayed is 2.5.

Coastal Water Temperatures

Place Temperature

Stations

Nearby Weather Stations

Station Location Temp. Windchill Dew Point Humidity Wind Precip. Elev Updated Type
                   

Watches & Warnings

There are currently no watches in effect.